createdAt,value
2022-08-31T00:05:20.310Z,9.23
2022-08-31T00:13:26.366Z,10.30
2022-08-31T00:21:34.575Z,10.93
2022-08-31T00:29:39.979Z,9.80
2022-08-31T00:37:48.009Z,9.82
2022-08-31T00:45:53.433Z,9.85
2022-08-31T00:54:02.404Z,9.75
2022-08-31T01:02:07.963Z,12.82
2022-08-31T01:10:16.802Z,11.55
2022-08-31T01:18:22.919Z,10.23
2022-08-31T01:26:33.864Z,10.25
2022-08-31T01:34:39.279Z,10.77
2022-08-31T01:42:47.344Z,9.35
2022-08-31T01:50:53.762Z,10.57
2022-08-31T01:59:07.621Z,9.38
2022-08-31T02:07:32.226Z,9.18
2022-08-31T02:15:41.544Z,11.68
2022-08-31T02:23:47.106Z,11.13
2022-08-31T02:31:55.163Z,13.00
2022-08-31T02:40:00.653Z,11.20
2022-08-31T02:48:11.102Z,12.68
2022-08-31T02:56:18.248Z,11.75
2022-08-31T03:04:26.334Z,11.10
2022-08-31T03:12:31.893Z,11.45
2022-08-31T03:20:40.200Z,10.95
2022-08-31T03:28:45.634Z,10.70
2022-08-31T03:37:16.872Z,11.75
2022-08-31T03:45:22.784Z,11.98
2022-08-31T03:53:31.330Z,10.48
2022-08-31T04:01:39.836Z,10.65
2022-08-31T04:10:26.444Z,9.27
2022-08-31T04:18:54.906Z,11.45
2022-08-31T04:27:03.455Z,10.05
2022-08-31T04:35:10.290Z,11.38
2022-08-31T04:43:19.526Z,10.90
2022-08-31T04:51:31.366Z,10.57
2022-08-31T04:59:39.652Z,11.70
2022-08-31T05:08:05.388Z,11.68
2022-08-31T05:16:16.400Z,11.82
2022-08-31T05:24:23.742Z,12.27
2022-08-31T05:32:34.145Z,11.40
2022-08-31T05:40:41.167Z,9.73
2022-08-31T05:48:50.132Z,9.50
2022-08-31T05:56:59.864Z,10.80
2022-08-31T06:05:11.069Z,11.05
2022-08-31T06:13:17.316Z,11.52
2022-08-31T06:21:29.221Z,10.65
2022-08-31T06:29:35.469Z,9.30
2022-08-31T06:37:43.681Z,8.30
2022-08-31T06:46:12.120Z,9.60
2022-08-31T06:54:34.622Z,10.55
2022-08-31T07:03:23.209Z,10.00
2022-08-31T07:11:35.294Z,9.38
2022-08-31T07:19:44.860Z,8.68
2022-08-31T07:27:55.679Z,8.45
2022-08-31T07:36:01.748Z,8.60
2022-08-31T07:44:29.253Z,7.47
2022-08-31T07:52:37.550Z,7.38
2022-08-31T08:00:57.355Z,7.28
2022-08-31T08:09:23.953Z,7.65
2022-08-31T08:17:38.379Z,7.15
2022-08-31T08:25:49.093Z,7.45
2022-08-31T08:34:01.357Z,7.53
2022-08-31T08:42:11.380Z,7.47
2022-08-31T08:50:19.764Z,6.82
2022-08-31T08:58:26.186Z,7.10
2022-08-31T09:06:46.446Z,6.28
2022-08-31T09:15:11.412Z,6.80
2022-08-31T09:23:21.971Z,5.95
2022-08-31T09:31:37.901Z,6.15
2022-08-31T09:39:50.992Z,5.93
2022-08-31T09:48:00.710Z,5.57
2022-08-31T09:56:20.088Z,5.90
2022-08-31T10:04:28.888Z,5.70
2022-08-31T10:12:45.654Z,6.18
2022-08-31T10:20:57.147Z,6.40
2022-08-31T10:29:09.215Z,5.28
2022-08-31T10:37:20.283Z,5.20
2022-08-31T10:45:31.094Z,6.45
2022-08-31T10:53:52.413Z,6.03
2022-08-31T11:02:15.391Z,6.30
2022-08-31T11:10:30.547Z,5.55
2022-08-31T11:19:14.505Z,5.60
2022-08-31T11:27:26.034Z,5.35
2022-08-31T11:36:07.229Z,5.85
2022-08-31T11:44:37.152Z,6.40
2022-08-31T11:52:48.681Z,6.88
2022-08-31T12:09:23.568Z,6.35
2022-08-31T12:17:34.708Z,6.03
2022-08-31T12:26:02.265Z,4.60
2022-08-31T12:34:09.995Z,4.65
2022-08-31T12:42:19.281Z,4.15
2022-08-31T12:50:32.633Z,5.30
2022-08-31T12:58:56.014Z,3.78
2022-08-31T13:07:16.449Z,4.28
2022-08-31T13:15:30.483Z,4.28
2022-08-31T13:23:38.670Z,4.32
2022-08-31T13:31:54.561Z,3.78
2022-08-31T13:40:01.797Z,5.70
2022-08-31T13:48:16.651Z,5.65
2022-08-31T13:56:54.293Z,4.75
2022-08-31T14:05:05.217Z,3.88
2022-08-31T14:13:21.409Z,4.22
2022-08-31T14:21:35.234Z,4.85
2022-08-31T14:29:44.951Z,5.20
2022-08-31T14:37:54.233Z,6.00
2022-08-31T14:46:02.653Z,5.97
2022-08-31T14:54:11.531Z,6.03
2022-08-31T15:02:21.723Z,5.55
2022-08-31T15:10:30.677Z,5.90
2022-08-31T15:18:37.663Z,5.85
2022-08-31T15:26:45.810Z,7.03
2022-08-31T15:34:53.649Z,5.93
2022-08-31T15:43:02.569Z,6.53
2022-08-31T15:51:08.051Z,5.43
2022-08-31T15:59:16.141Z,5.18
2022-08-31T16:07:22.779Z,4.85
2022-08-31T16:15:33.108Z,5.88
2022-08-31T16:23:39.825Z,5.40
2022-08-31T16:31:49.066Z,6.13
2022-08-31T16:39:55.005Z,5.28
2022-08-31T16:48:15.275Z,5.40
2022-08-31T16:56:22.964Z,5.82
2022-08-31T17:04:52.589Z,6.57
2022-08-31T17:12:58.630Z,6.65
2022-08-31T17:21:06.762Z,5.90
2022-08-31T17:29:14.682Z,5.00
2022-08-31T17:37:27.002Z,5.90
2022-08-31T17:45:34.682Z,5.47
2022-08-31T17:53:42.780Z,5.88
2022-08-31T18:01:52.103Z,5.80
2022-08-31T18:10:00.255Z,5.50
2022-08-31T18:18:05.711Z,5.43
2022-08-31T18:26:25.709Z,5.32
2022-08-31T18:34:31.129Z,6.55
2022-08-31T18:42:52.116Z,5.55
2022-08-31T18:50:59.240Z,6.28
2022-08-31T18:59:10.297Z,6.95
2022-08-31T19:07:16.979Z,6.50
2022-08-31T19:15:35.337Z,7.03
2022-08-31T19:23:41.685Z,7.05
2022-08-31T19:31:51.384Z,7.43
2022-08-31T19:39:56.878Z,7.38
2022-08-31T19:48:05.203Z,8.00
2022-08-31T19:56:11.379Z,8.30
2022-08-31T20:04:19.892Z,8.07
2022-08-31T20:12:29.840Z,8.13
2022-08-31T20:20:43.458Z,8.48
2022-08-31T20:28:48.818Z,7.72
2022-08-31T20:37:01.299Z,8.40
2022-08-31T20:53:17.481Z,8.32
2022-08-31T21:01:31.501Z,7.70
2022-08-31T21:09:39.587Z,9.02
2022-08-31T21:17:45.847Z,9.55
2022-08-31T21:25:55.590Z,9.63
2022-08-31T21:34:03.864Z,9.63
2022-08-31T21:42:11.914Z,7.28
2022-08-31T21:50:17.387Z,6.28
2022-08-31T21:58:25.334Z,5.70
2022-08-31T22:06:33.179Z,6.07
2022-08-31T22:14:44.794Z,6.55
2022-08-31T22:22:50.208Z,7.25
2022-08-31T22:31:00.868Z,7.53
2022-08-31T22:39:08.753Z,7.28
2022-08-31T22:47:16.909Z,7.63
2022-08-31T22:55:22.413Z,7.75
2022-08-31T23:03:30.879Z,7.20
2022-08-31T23:11:36.564Z,6.97
2022-08-31T23:19:46.884Z,7.72
2022-08-31T23:27:53.530Z,7.22
2022-08-31T23:36:01.552Z,7.90
2022-08-31T23:44:09.482Z,9.07
2022-08-31T23:52:21.279Z,6.75
